sensor_id;sensor_type;location;lat;lon;timestamp;temperature;humidity
3208;DHT22;1616;52.394;9.756;2022-11-20T00:01:15;-1.60;1.00
3208;DHT22;1616;52.394;9.756;2022-11-20T00:03:41;-1.60;1.00
3208;DHT22;1616;52.394;9.756;2022-11-20T00:06:12;-1.60;1.00
3208;DHT22;1616;52.394;9.756;2022-11-20T00:08:39;-1.60;1.00
3208;DHT22;1616;52.394;9.756;2022-11-20T00:11:10;-1.60;1.00
3208;DHT22;1616;52.394;9.756;2022-11-20T00:13:36;-1.60;1.00
3208;DHT22;1616;52.394;9.756;2022-11-20T00:16:04;-1.60;1.00
3208;DHT22;1616;52.394;9.756;2022-11-20T00:18:30;-1.60;1.00
3208;DHT22;1616;52.394;9.756;2022-11-20T00:21:07;-1.70;1.00
3208;DHT22;1616;52.394;9.756;2022-11-20T00:23:33;-1.60;1.00
3208;DHT22;1616;52.394;9.756;2022-11-20T00:26:04;-1.60;1.00
3208;DHT22;1616;52.394;9.756;2022-11-20T00:28:30;-1.60;1.00
3208;DHT22;1616;52.394;9.756;2022-11-20T00:31:07;-1.60;1.00
3208;DHT22;1616;52.394;9.756;2022-11-20T00:33:34;-1.60;1.00
3208;DHT22;1616;52.394;9.756;2022-11-20T00:36:05;-1.60;1.00
3208;DHT22;1616;52.394;9.756;2022-11-20T00:38:32;-1.60;1.00
3208;DHT22;1616;52.394;9.756;2022-11-20T00:40:59;-1.60;1.00
3208;DHT22;1616;52.394;9.756;2022-11-20T00:43:26;-1.60;1.00
3208;DHT22;1616;52.394;9.756;2022-11-20T00:46:16;-1.70;1.00
3208;DHT22;1616;52.394;9.756;2022-11-20T00:48:42;-1.70;1.00
3208;DHT22;1616;52.394;9.756;2022-11-20T00:51:08;-1.70;1.00
3208;DHT22;1616;52.394;9.756;2022-11-20T00:53:35;-1.70;1.00
3208;DHT22;1616;52.394;9.756;2022-11-20T00:56:05;-1.80;1.00
3208;DHT22;1616;52.394;9.756;2022-11-20T00:58:36;-1.80;1.00
3208;DHT22;1616;52.394;9.756;2022-11-20T01:01:23;-1.80;1.00
3208;DHT22;1616;52.394;9.756;2022-11-20T01:03:57;-1.90;1.00
3208;DHT22;1616;52.394;9.756;2022-11-20T01:06:31;-1.90;1.00
3208;DHT22;1616;52.394;9.756;2022-11-20T01:08:58;-1.90;1.00
3208;DHT22;1616;52.394;9.756;2022-11-20T01:11:27;-1.90;1.00
3208;DHT22;1616;52.394;9.756;2022-11-20T01:13:55;-1.90;1.00
3208;DHT22;1616;52.394;9.756;2022-11-20T01:16:22;-1.90;1.00
3208;DHT22;1616;52.394;9.756;2022-11-20T01:18:51;-1.90;1.00
3208;DHT22;1616;52.394;9.756;2022-11-20T01:21:20;-1.90;1.00
3208;DHT22;1616;52.394;9.756;2022-11-20T01:23:48;-1.90;1.00
3208;DHT22;1616;52.394;9.756;2022-11-20T01:26:17;-1.90;1.00
3208;DHT22;1616;52.394;9.756;2022-11-20T01:28:43;-1.90;1.00
3208;DHT22;1616;52.394;9.756;2022-11-20T01:31:15;-1.90;1.00
3208;DHT22;1616;52.394;9.756;2022-11-20T01:33:42;-1.90;1.00
3208;DHT22;1616;52.394;9.756;2022-11-20T01:36:09;-1.90;1.00
3208;DHT22;1616;52.394;9.756;2022-11-20T01:38:35;-1.80;1.00
3208;DHT22;1616;52.394;9.756;2022-11-20T01:41:01;-1.80;1.00
3208;DHT22;1616;52.394;9.756;2022-11-20T01:43:26;-1.80;1.00
3208;DHT22;1616;52.394;9.756;2022-11-20T01:49:01;-1.80;1.00
3208;DHT22;1616;52.394;9.756;2022-11-20T01:51:42;-1.80;1.00
3208;DHT22;1616;52.394;9.756;2022-11-20T01:54:14;-1.80;1.00
3208;DHT22;1616;52.394;9.756;2022-11-20T01:56:43;-1.80;1.00
3208;DHT22;1616;52.394;9.756;2022-11-20T01:59:11;-1.70;1.00
3208;DHT22;1616;52.394;9.756;2022-11-20T02:01:39;-1.70;1.00
3208;DHT22;1616;52.394;9.756;2022-11-20T02:04:05;-1.70;1.00
3208;DHT22;1616;52.394;9.756;2022-11-20T02:06:48;-1.70;1.00
3208;DHT22;1616;52.394;9.756;2022-11-20T02:09:15;-1.60;1.00
3208;DHT22;1616;52.394;9.756;2022-11-20T02:11:41;-1.50;1.00
3208;DHT22;1616;52.394;9.756;2022-11-20T02:14:07;-1.50;1.00
3208;DHT22;1616;52.394;9.756;2022-11-20T02:16:45;-1.40;1.00
3208;DHT22;1616;52.394;9.756;2022-11-20T02:19:37;-1.40;1.00
3208;DHT22;1616;52.394;9.756;2022-11-20T02:22:14;-1.20;1.00
3208;DHT22;1616;52.394;9.756;2022-11-20T02:24:45;-1.20;1.00
3208;DHT22;1616;52.394;9.756;2022-11-20T02:27:13;-1.10;1.00
3208;DHT22;1616;52.394;9.756;2022-11-20T02:29:58;-1.10;1.00
3208;DHT22;1616;52.394;9.756;2022-11-20T02:32:32;-1.00;1.00
3208;DHT22;1616;52.394;9.756;2022-11-20T02:35:05;-1.00;1.00
3208;DHT22;1616;52.394;9.756;2022-11-20T02:37:34;-1.00;1.00
3208;DHT22;1616;52.394;9.756;2022-11-20T02:40:00;-0.90;1.00
3208;DHT22;1616;52.394;9.756;2022-11-20T02:42:26;-0.90;1.00
3208;DHT22;1616;52.394;9.756;2022-11-20T02:44:52;-0.80;1.00
3208;DHT22;1616;52.394;9.756;2022-11-20T02:47:17;-0.80;1.00
3208;DHT22;1616;52.394;9.756;2022-11-20T02:49:43;-0.70;1.00
3208;DHT22;1616;52.394;9.756;2022-11-20T02:52:09;-0.70;1.00
3208;DHT22;1616;52.394;9.756;2022-11-20T02:54:34;-0.60;1.00
3208;DHT22;1616;52.394;9.756;2022-11-20T02:57:00;-0.60;1.00
3208;DHT22;1616;52.394;9.756;2022-11-20T02:59:25;-0.60;1.00
3208;DHT22;1616;52.394;9.756;2022-11-20T03:01:51;-0.60;1.00
3208;DHT22;1616;52.394;9.756;2022-11-20T03:04:17;-0.60;1.00
3208;DHT22;1616;52.394;9.756;2022-11-20T03:06:42;-0.70;1.00
3208;DHT22;1616;52.394;9.756;2022-11-20T03:09:08;-0.70;1.00
3208;DHT22;1616;52.394;9.756;2022-11-20T03:11:34;-0.70;1.00
3208;DHT22;1616;52.394;9.756;2022-11-20T03:14:04;-0.70;1.00
3208;DHT22;1616;52.394;9.756;2022-11-20T03:16:30;-0.80;1.00
3208;DHT22;1616;52.394;9.756;2022-11-20T03:18:56;-0.80;1.00
3208;DHT22;1616;52.394;9.756;2022-11-20T03:21:22;-0.80;1.00
3208;DHT22;1616;52.394;9.756;2022-11-20T03:23:48;-0.80;1.00
3208;DHT22;1616;52.394;9.756;2022-11-20T03:26:20;-0.80;1.00
3208;DHT22;1616;52.394;9.756;2022-11-20T03:28:49;-0.80;1.00
3208;DHT22;1616;52.394;9.756;2022-11-20T03:31:16;-0.80;1.00
3208;DHT22;1616;52.394;9.756;2022-11-20T03:33:42;-0.80;1.00
3208;DHT22;1616;52.394;9.756;2022-11-20T03:36:11;-0.80;1.00
3208;DHT22;1616;52.394;9.756;2022-11-20T03:38:37;-0.80;1.00
3208;DHT22;1616;52.394;9.756;2022-11-20T03:41:05;-0.80;1.00
3208;DHT22;1616;52.394;9.756;2022-11-20T03:43:31;-0.80;1.00
3208;DHT22;1616;52.394;9.756;2022-11-20T03:45:57;-0.70;1.00
3208;DHT22;1616;52.394;9.756;2022-11-20T03:48:23;-0.80;1.00
3208;DHT22;1616;52.394;9.756;2022-11-20T03:50:51;-0.70;1.00
3208;DHT22;1616;52.394;9.756;2022-11-20T03:53:17;-0.70;1.00
3208;DHT22;1616;52.394;9.756;2022-11-20T03:55:43;-0.70;1.00
3208;DHT22;1616;52.394;9.756;2022-11-20T03:58:09;-0.70;1.00
3208;DHT22;1616;52.394;9.756;2022-11-20T04:00:35;-0.70;1.00
3208;DHT22;1616;52.394;9.756;2022-11-20T04:03:02;-0.70;1.00
3208;DHT22;1616;52.394;9.756;2022-11-20T04:05:28;-0.70;1.00
3208;DHT22;1616;52.394;9.756;2022-11-20T04:07:54;-0.70;1.00
3208;DHT22;1616;52.394;9.756;2022-11-20T04:10:20;-0.70;1.00
3208;DHT22;1616;52.394;9.756;2022-11-20T04:12:46;-0.70;1.00
3208;DHT22;1616;52.394;9.756;2022-11-20T04:15:11;-0.70;1.00
3208;DHT22;1616;52.394;9.756;2022-11-20T04:17:37;-0.80;1.00
3208;DHT22;1616;52.394;9.756;2022-11-20T04:20:03;-0.80;1.00
3208;DHT22;1616;52.394;9.756;2022-11-20T04:22:29;-0.80;1.00
3208;DHT22;1616;52.394;9.756;2022-11-20T04:24:55;-0.80;1.00
3208;DHT22;1616;52.394;9.756;2022-11-20T04:27:20;-0.80;1.00
3208;DHT22;1616;52.394;9.756;2022-11-20T04:29:46;-0.80;1.00
3208;DHT22;1616;52.394;9.756;2022-11-20T04:32:12;-0.80;1.00
3208;DHT22;1616;52.394;9.756;2022-11-20T04:34:38;-0.70;1.00
3208;DHT22;1616;52.394;9.756;2022-11-20T04:37:03;-0.70;1.00
3208;DHT22;1616;52.394;9.756;2022-11-20T04:39:29;-0.70;1.00
3208;DHT22;1616;52.394;9.756;2022-11-20T04:41:55;-0.70;1.00
3208;DHT22;1616;52.394;9.756;2022-11-20T04:44:39;-0.70;1.00
3208;DHT22;1616;52.394;9.756;2022-11-20T04:47:05;-0.60;1.00
3208;DHT22;1616;52.394;9.756;2022-11-20T04:49:31;-0.60;1.00
3208;DHT22;1616;52.394;9.756;2022-11-20T04:51:58;-0.50;1.00
3208;DHT22;1616;52.394;9.756;2022-11-20T04:54:24;-0.40;1.00
3208;DHT22;1616;52.394;9.756;2022-11-20T04:56:50;-0.40;1.00
3208;DHT22;1616;52.394;9.756;2022-11-20T04:59:16;-0.30;1.00
3208;DHT22;1616;52.394;9.756;2022-11-20T05:01:41;-0.20;1.00
3208;DHT22;1616;52.394;9.756;2022-11-20T05:04:08;-0.20;1.00
3208;DHT22;1616;52.394;9.756;2022-11-20T05:06:34;-0.20;1.00
3208;DHT22;1616;52.394;9.756;2022-11-20T05:08:59;-0.10;1.00
3208;DHT22;1616;52.394;9.756;2022-11-20T05:11:26;-0.10;1.00
3208;DHT22;1616;52.394;9.756;2022-11-20T05:13:54;0.00;1.00
3208;DHT22;1616;52.394;9.756;2022-11-20T05:16:23;0.10;1.00
3208;DHT22;1616;52.394;9.756;2022-11-20T05:18:52;0.10;1.00
3208;DHT22;1616;52.394;9.756;2022-11-20T05:21:18;0.10;1.00
3208;DHT22;1616;52.394;9.756;2022-11-20T05:23:45;0.10;1.00
3208;DHT22;1616;52.394;9.756;2022-11-20T05:26:19;0.10;1.00
3208;DHT22;1616;52.394;9.756;2022-11-20T05:28:47;0.10;1.00
3208;DHT22;1616;52.394;9.756;2022-11-20T05:31:19;0.10;1.00
3208;DHT22;1616;52.394;9.756;2022-11-20T05:33:45;0.10;1.00
3208;DHT22;1616;52.394;9.756;2022-11-20T05:36:13;0.00;1.00
3208;DHT22;1616;52.394;9.756;2022-11-20T05:38:39;0.00;1.00
3208;DHT22;1616;52.394;9.756;2022-11-20T05:41:11;-0.10;1.00
3208;DHT22;1616;52.394;9.756;2022-11-20T05:43:38;-0.10;1.00
3208;DHT22;1616;52.394;9.756;2022-11-20T05:46:06;-0.10;1.00
3208;DHT22;1616;52.394;9.756;2022-11-20T05:48:33;-0.10;1.00
3208;DHT22;1616;52.394;9.756;2022-11-20T05:51:00;-0.20;1.00
3208;DHT22;1616;52.394;9.756;2022-11-20T05:53:26;-0.20;1.00
3208;DHT22;1616;52.394;9.756;2022-11-20T05:56:00;-0.20;1.00
3208;DHT22;1616;52.394;9.756;2022-11-20T05:58:26;-0.20;1.00
3208;DHT22;1616;52.394;9.756;2022-11-20T06:00:52;-0.20;1.00
3208;DHT22;1616;52.394;9.756;2022-11-20T06:03:17;-0.20;1.00
3208;DHT22;1616;52.394;9.756;2022-11-20T06:05:43;-0.20;1.00
3208;DHT22;1616;52.394;9.756;2022-11-20T06:08:09;-0.10;1.00
3208;DHT22;1616;52.394;9.756;2022-11-20T06:10:35;-0.10;1.00
3208;DHT22;1616;52.394;9.756;2022-11-20T06:13:01;-0.10;1.00
3208;DHT22;1616;52.394;9.756;2022-11-20T06:15:27;0.00;1.00
3208;DHT22;1616;52.394;9.756;2022-11-20T06:17:56;-0.10;1.00
3208;DHT22;1616;52.394;9.756;2022-11-20T06:20:22;0.00;1.00
3208;DHT22;1616;52.394;9.756;2022-11-20T06:22:47;0.00;1.00
3208;DHT22;1616;52.394;9.756;2022-11-20T06:25:13;0.10;1.00
3208;DHT22;1616;52.394;9.756;2022-11-20T06:27:39;0.10;1.00
3208;DHT22;1616;52.394;9.756;2022-11-20T06:30:05;0.10;1.00
3208;DHT22;1616;52.394;9.756;2022-11-20T06:32:32;0.20;1.00
3208;DHT22;1616;52.394;9.756;2022-11-20T06:34:59;0.20;1.00
3208;DHT22;1616;52.394;9.756;2022-11-20T06:37:24;0.30;1.00
3208;DHT22;1616;52.394;9.756;2022-11-20T06:39:50;0.40;1.00
3208;DHT22;1616;52.394;9.756;2022-11-20T06:42:15;0.40;1.00
3208;DHT22;1616;52.394;9.756;2022-11-20T06:44:41;0.40;1.00
3208;DHT22;1616;52.394;9.756;2022-11-20T06:47:07;0.40;1.00
3208;DHT22;1616;52.394;9.756;2022-11-20T06:49:32;0.40;1.00
3208;DHT22;1616;52.394;9.756;2022-11-20T06:51:59;0.40;1.00
3208;DHT22;1616;52.394;9.756;2022-11-20T06:54:25;0.40;1.00
3208;DHT22;1616;52.394;9.756;2022-11-20T06:56:51;0.30;1.00
3208;DHT22;1616;52.394;9.756;2022-11-20T06:59:16;0.30;1.00
3208;DHT22;1616;52.394;9.756;2022-11-20T07:01:43;0.20;1.00
3208;DHT22;1616;52.394;9.756;2022-11-20T07:04:09;0.20;1.00
3208;DHT22;1616;52.394;9.756;2022-11-20T07:06:34;0.20;1.00
3208;DHT22;1616;52.394;9.756;2022-11-20T07:09:00;0.20;1.00
3208;DHT22;1616;52.394;9.756;2022-11-20T07:11:26;0.20;1.00
3208;DHT22;1616;52.394;9.756;2022-11-20T07:13:52;0.10;1.00
3208;DHT22;1616;52.394;9.756;2022-11-20T07:16:18;0.20;1.00
3208;DHT22;1616;52.394;9.756;2022-11-20T07:18:44;0.20;1.00
3208;DHT22;1616;52.394;9.756;2022-11-20T07:21:10;0.20;1.00
3208;DHT22;1616;52.394;9.756;2022-11-20T07:23:36;0.20;1.00
3208;DHT22;1616;52.394;9.756;2022-11-20T07:26:07;0.20;1.00
3208;DHT22;1616;52.394;9.756;2022-11-20T07:28:33;0.20;1.00
3208;DHT22;1616;52.394;9.756;2022-11-20T07:30:59;0.20;1.00
3208;DHT22;1616;52.394;9.756;2022-11-20T07:33:25;0.20;1.00
3208;DHT22;1616;52.394;9.756;2022-11-20T07:35:50;0.20;1.00
3208;DHT22;1616;52.394;9.756;2022-11-20T07:38:17;0.20;1.00
3208;DHT22;1616;52.394;9.756;2022-11-20T07:40:43;0.20;1.00
3208;DHT22;1616;52.394;9.756;2022-11-20T07:43:09;0.20;1.00
3208;DHT22;1616;52.394;9.756;2022-11-20T07:45:35;0.30;1.00
3208;DHT22;1616;52.394;9.756;2022-11-20T07:48:01;0.30;1.00
3208;DHT22;1616;52.394;9.756;2022-11-20T07:50:26;0.30;1.00
3208;DHT22;1616;52.394;9.756;2022-11-20T07:52:52;0.40;1.00
3208;DHT22;1616;52.394;9.756;2022-11-20T07:55:25;0.40;1.00
3208;DHT22;1616;52.394;9.756;2022-11-20T07:57:55;0.50;1.00
3208;DHT22;1616;52.394;9.756;2022-11-20T08:00:21;0.50;1.00
3208;DHT22;1616;52.394;9.756;2022-11-20T08:02:47;0.50;1.00
3208;DHT22;1616;52.394;9.756;2022-11-20T08:05:13;0.50;1.00
3208;DHT22;1616;52.394;9.756;2022-11-20T08:07:41;0.50;1.00
3208;DHT22;1616;52.394;9.756;2022-11-20T08:10:09;0.50;1.00
3208;DHT22;1616;52.394;9.756;2022-11-20T08:12:34;0.60;1.00
3208;DHT22;1616;52.394;9.756;2022-11-20T08:15:19;0.70;1.00
3208;DHT22;1616;52.394;9.756;2022-11-20T08:17:45;0.70;1.00
3208;DHT22;1616;52.394;9.756;2022-11-20T08:20:11;0.70;1.00
3208;DHT22;1616;52.394;9.756;2022-11-20T08:22:36;0.80;1.00
3208;DHT22;1616;52.394;9.756;2022-11-20T08:25:02;0.80;1.00
3208;DHT22;1616;52.394;9.756;2022-11-20T08:27:28;0.80;1.00
3208;DHT22;1616;52.394;9.756;2022-11-20T08:29:54;0.90;1.00
3208;DHT22;1616;52.394;9.756;2022-11-20T08:32:20;0.90;1.00
3208;DHT22;1616;52.394;9.756;2022-11-20T08:34:46;0.90;1.00
3208;DHT22;1616;52.394;9.756;2022-11-20T08:37:11;1.00;1.00
3208;DHT22;1616;52.394;9.756;2022-11-20T08:39:37;1.10;1.00
3208;DHT22;1616;52.394;9.756;2022-11-20T08:42:07;1.10;1.00
3208;DHT22;1616;52.394;9.756;2022-11-20T08:44:32;1.20;1.00
3208;DHT22;1616;52.394;9.756;2022-11-20T08:46:58;1.20;1.00
3208;DHT22;1616;52.394;9.756;2022-11-20T08:49:24;1.20;1.00
3208;DHT22;1616;52.394;9.756;2022-11-20T08:51:49;1.30;1.00
3208;DHT22;1616;52.394;9.756;2022-11-20T08:54:19;1.40;1.00
3208;DHT22;1616;52.394;9.756;2022-11-20T08:56:47;1.50;1.00
3208;DHT22;1616;52.394;9.756;2022-11-20T08:59:13;1.60;1.00
3208;DHT22;1616;52.394;9.756;2022-11-20T09:01:39;1.70;1.00
3208;DHT22;1616;52.394;9.756;2022-11-20T09:04:04;1.90;1.00
3208;DHT22;1616;52.394;9.756;2022-11-20T09:06:30;2.00;1.00
3208;DHT22;1616;52.394;9.756;2022-11-20T09:08:56;2.10;1.00
3208;DHT22;1616;52.394;9.756;2022-11-20T09:11:22;2.10;1.00
3208;DHT22;1616;52.394;9.756;2022-11-20T09:13:48;2.20;1.00
3208;DHT22;1616;52.394;9.756;2022-11-20T09:16:14;2.20;1.00
3208;DHT22;1616;52.394;9.756;2022-11-20T09:18:39;2.30;1.00
3208;DHT22;1616;52.394;9.756;2022-11-20T09:21:09;2.30;1.00
3208;DHT22;1616;52.394;9.756;2022-11-20T09:23:39;2.30;1.00
3208;DHT22;1616;52.394;9.756;2022-11-20T09:26:06;2.30;1.00
3208;DHT22;1616;52.394;9.756;2022-11-20T09:28:32;2.30;1.00
3208;DHT22;1616;52.394;9.756;2022-11-20T09:30:58;2.40;1.00
3208;DHT22;1616;52.394;9.756;2022-11-20T09:33:24;2.70;1.00
3208;DHT22;1616;52.394;9.756;2022-11-20T09:35:50;3.10;1.00
3208;DHT22;1616;52.394;9.756;2022-11-20T09:38:16;3.60;1.00
3208;DHT22;1616;52.394;9.756;2022-11-20T09:40:58;4.00;1.00
3208;DHT22;1616;52.394;9.756;2022-11-20T09:46:28;4.80;1.00
3208;DHT22;1616;52.394;9.756;2022-11-20T09:54:21;6.60;1.00
3208;DHT22;1616;52.394;9.756;2022-11-20T09:56:53;7.20;1.00
3208;DHT22;1616;52.394;9.756;2022-11-20T10:01:56;8.50;1.00
3208;DHT22;1616;52.394;9.756;2022-11-20T10:04:23;8.90;1.00
3208;DHT22;1616;52.394;9.756;2022-11-20T10:07:17;9.10;1.00
3208;DHT22;1616;52.394;9.756;2022-11-20T10:09:52;9.20;1.00
3208;DHT22;1616;52.394;9.756;2022-11-20T10:13:14;9.10;1.00
3208;DHT22;1616;52.394;9.756;2022-11-20T10:27:27;7.20;1.00
3208;DHT22;1616;52.394;9.756;2022-11-20T10:30:09;6.90;1.00
3208;DHT22;1616;52.394;9.756;2022-11-20T10:32:39;6.60;1.00
3208;DHT22;1616;52.394;9.756;2022-11-20T10:38:03;6.10;1.00
3208;DHT22;1616;52.394;9.756;2022-11-20T10:40:43;5.80;1.00
3208;DHT22;1616;52.394;9.756;2022-11-20T10:43:19;5.70;1.00
3208;DHT22;1616;52.394;9.756;2022-11-20T10:46:00;5.60;1.00
3208;DHT22;1616;52.394;9.756;2022-11-20T10:48:31;5.60;1.00
3208;DHT22;1616;52.394;9.756;2022-11-20T10:53:58;5.70;1.00
3208;DHT22;1616;52.394;9.756;2022-11-20T10:56:52;5.70;1.00
3208;DHT22;1616;52.394;9.756;2022-11-20T11:02:24;5.80;1.00
3208;DHT22;1616;52.394;9.756;2022-11-20T11:04:55;5.70;1.00
3208;DHT22;1616;52.394;9.756;2022-11-20T11:07:36;5.60;1.00
3208;DHT22;1616;52.394;9.756;2022-11-20T11:10:21;5.50;1.00
3208;DHT22;1616;52.394;9.756;2022-11-20T11:12:48;5.50;1.00
3208;DHT22;1616;52.394;9.756;2022-11-20T11:15:38;5.50;1.00
3208;DHT22;1616;52.394;9.756;2022-11-20T11:18:04;5.60;1.00
3208;DHT22;1616;52.394;9.756;2022-11-20T11:20:30;5.60;1.00
3208;DHT22;1616;52.394;9.756;2022-11-20T11:22:59;5.60;1.00
3208;DHT22;1616;52.394;9.756;2022-11-20T11:25:31;5.60;1.00
3208;DHT22;1616;52.394;9.756;2022-11-20T11:30:44;5.40;1.00
3208;DHT22;1616;52.394;9.756;2022-11-20T11:33:18;5.20;1.00
3208;DHT22;1616;52.394;9.756;2022-11-20T11:35:56;5.20;1.00
3208;DHT22;1616;52.394;9.756;2022-11-20T11:38:44;5.10;1.00
3208;DHT22;1616;52.394;9.756;2022-11-20T11:41:16;5.00;1.00
3208;DHT22;1616;52.394;9.756;2022-11-20T11:43:55;5.00;1.00
3208;DHT22;1616;52.394;9.756;2022-11-20T11:46:49;4.90;1.00
3208;DHT22;1616;52.394;9.756;2022-11-20T11:49:19;4.80;1.00
3208;DHT22;1616;52.394;9.756;2022-11-20T11:51:57;4.70;1.00
3208;DHT22;1616;52.394;9.756;2022-11-20T11:57:36;4.60;1.00
3208;DHT22;1616;52.394;9.756;2022-11-20T12:00:12;4.50;1.00
3208;DHT22;1616;52.394;9.756;2022-11-20T12:05:49;4.50;1.00
3208;DHT22;1616;52.394;9.756;2022-11-20T12:08:31;4.50;1.00
3208;DHT22;1616;52.394;9.756;2022-11-20T12:11:32;4.50;1.00
3208;DHT22;1616;52.394;9.756;2022-11-20T12:14:05;4.60;1.00
3208;DHT22;1616;52.394;9.756;2022-11-20T12:16:37;4.60;1.00
3208;DHT22;1616;52.394;9.756;2022-11-20T12:19:09;4.70;1.00
3208;DHT22;1616;52.394;9.756;2022-11-20T12:24:16;4.70;1.00
3208;DHT22;1616;52.394;9.756;2022-11-20T12:37:59;4.80;1.00
3208;DHT22;1616;52.394;9.756;2022-11-20T12:44:24;4.90;1.00
3208;DHT22;1616;52.394;9.756;2022-11-20T12:47:34;5.10;1.00
3208;DHT22;1616;52.394;9.756;2022-11-20T12:50:22;5.10;1.00
3208;DHT22;1616;52.394;9.756;2022-11-20T12:52:54;5.10;1.00
3208;DHT22;1616;52.394;9.756;2022-11-20T12:55:29;5.10;1.00
3208;DHT22;1616;52.394;9.756;2022-11-20T12:58:13;5.10;1.00
3208;DHT22;1616;52.394;9.756;2022-11-20T13:00:51;5.10;1.00
3208;DHT22;1616;52.394;9.756;2022-11-20T13:03:34;5.00;1.00
3208;DHT22;1616;52.394;9.756;2022-11-20T13:06:19;4.90;1.00
3208;DHT22;1616;52.394;9.756;2022-11-20T13:09:03;4.80;1.00
3208;DHT22;1616;52.394;9.756;2022-11-20T13:11:34;4.70;1.00
3208;DHT22;1616;52.394;9.756;2022-11-20T13:17:10;4.50;1.00
3208;DHT22;1616;52.394;9.756;2022-11-20T13:19:38;4.40;1.00
3208;DHT22;1616;52.394;9.756;2022-11-20T13:22:04;4.40;1.00
3208;DHT22;1616;52.394;9.756;2022-11-20T13:24:31;4.40;1.00
3208;DHT22;1616;52.394;9.756;2022-11-20T13:29:31;4.30;1.00
3208;DHT22;1616;52.394;9.756;2022-11-20T13:34:30;4.30;1.00
3208;DHT22;1616;52.394;9.756;2022-11-20T13:36:58;4.20;1.00
3208;DHT22;1616;52.394;9.756;2022-11-20T13:39:36;4.20;1.00
3208;DHT22;1616;52.394;9.756;2022-11-20T13:42:20;4.20;1.00
3208;DHT22;1616;52.394;9.756;2022-11-20T13:44:53;4.20;1.00
3208;DHT22;1616;52.394;9.756;2022-11-20T13:47:26;4.20;1.00
3208;DHT22;1616;52.394;9.756;2022-11-20T13:49:53;4.20;1.00
3208;DHT22;1616;52.394;9.756;2022-11-20T14:00:22;4.10;1.00
3208;DHT22;1616;52.394;9.756;2022-11-20T14:03:09;4.20;1.00
3208;DHT22;1616;52.394;9.756;2022-11-20T14:05:49;4.60;1.00
3208;DHT22;1616;52.394;9.756;2022-11-20T14:08:24;5.00;1.00
3208;DHT22;1616;52.394;9.756;2022-11-20T14:10:50;5.20;1.00
3208;DHT22;1616;52.394;9.756;2022-11-20T14:13:20;5.20;1.00
3208;DHT22;1616;52.394;9.756;2022-11-20T14:15:46;5.10;1.00
3208;DHT22;1616;52.394;9.756;2022-11-20T14:18:19;5.00;1.00
3208;DHT22;1616;52.394;9.756;2022-11-20T14:20:46;4.90;1.00
3208;DHT22;1616;52.394;9.756;2022-11-20T14:23:12;4.80;1.00
3208;DHT22;1616;52.394;9.756;2022-11-20T14:25:42;4.70;1.00
3208;DHT22;1616;52.394;9.756;2022-11-20T14:28:11;4.60;1.00
3208;DHT22;1616;52.394;9.756;2022-11-20T14:30:47;4.50;1.00
3208;DHT22;1616;52.394;9.756;2022-11-20T14:33:14;4.40;1.00
3208;DHT22;1616;52.394;9.756;2022-11-20T14:35:47;4.30;1.00
3208;DHT22;1616;52.394;9.756;2022-11-20T14:38:16;4.20;1.00
3208;DHT22;1616;52.394;9.756;2022-11-20T14:40:43;4.10;1.00
3208;DHT22;1616;52.394;9.756;2022-11-20T14:43:26;4.00;1.00
3208;DHT22;1616;52.394;9.756;2022-11-20T14:46:07;4.00;1.00
3208;DHT22;1616;52.394;9.756;2022-11-20T14:48:43;3.90;1.00
3208;DHT22;1616;52.394;9.756;2022-11-20T14:51:31;3.80;1.00
3208;DHT22;1616;52.394;9.756;2022-11-20T14:54:14;3.70;1.00
3208;DHT22;1616;52.394;9.756;2022-11-20T14:56:40;3.60;1.00
3208;DHT22;1616;52.394;9.756;2022-11-20T14:59:07;3.50;1.00
3208;DHT22;1616;52.394;9.756;2022-11-20T15:01:34;3.50;1.00
3208;DHT22;1616;52.394;9.756;2022-11-20T15:04:10;3.40;1.00
3208;DHT22;1616;52.394;9.756;2022-11-20T15:06:38;3.30;1.00
3208;DHT22;1616;52.394;9.756;2022-11-20T15:09:15;3.30;1.00
3208;DHT22;1616;52.394;9.756;2022-11-20T15:11:55;3.20;1.00
3208;DHT22;1616;52.394;9.756;2022-11-20T15:14:21;3.20;1.00
3208;DHT22;1616;52.394;9.756;2022-11-20T15:16:48;3.20;1.00
3208;DHT22;1616;52.394;9.756;2022-11-20T15:19:19;3.20;1.00
3208;DHT22;1616;52.394;9.756;2022-11-20T15:21:45;3.10;1.00
3208;DHT22;1616;52.394;9.756;2022-11-20T15:24:11;3.10;1.00
3208;DHT22;1616;52.394;9.756;2022-11-20T15:26:38;3.10;1.00
3208;DHT22;1616;52.394;9.756;2022-11-20T15:29:11;3.10;1.00
3208;DHT22;1616;52.394;9.756;2022-11-20T15:31:37;3.10;1.00
3208;DHT22;1616;52.394;9.756;2022-11-20T15:34:11;3.10;1.00
3208;DHT22;1616;52.394;9.756;2022-11-20T15:36:38;3.10;1.00
3208;DHT22;1616;52.394;9.756;2022-11-20T15:39:04;3.10;1.00
3208;DHT22;1616;52.394;9.756;2022-11-20T15:41:30;2.90;1.00
3208;DHT22;1616;52.394;9.756;2022-11-20T15:43:55;3.00;1.00
3208;DHT22;1616;52.394;9.756;2022-11-20T15:46:27;3.00;1.00
3208;DHT22;1616;52.394;9.756;2022-11-20T15:48:56;2.90;1.00
3208;DHT22;1616;52.394;9.756;2022-11-20T15:51:37;2.90;1.00
3208;DHT22;1616;52.394;9.756;2022-11-20T15:54:13;2.80;1.00
3208;DHT22;1616;52.394;9.756;2022-11-20T15:56:39;2.70;1.00
3208;DHT22;1616;52.394;9.756;2022-11-20T15:59:05;2.60;1.00
3208;DHT22;1616;52.394;9.756;2022-11-20T16:01:31;2.50;1.00
3208;DHT22;1616;52.394;9.756;2022-11-20T16:03:57;2.40;1.00
3208;DHT22;1616;52.394;9.756;2022-11-20T16:06:23;2.30;1.00
3208;DHT22;1616;52.394;9.756;2022-11-20T16:08:49;2.20;1.00
3208;DHT22;1616;52.394;9.756;2022-11-20T16:11:16;2.10;1.00
3208;DHT22;1616;52.394;9.756;2022-11-20T16:13:43;2.00;1.00
3208;DHT22;1616;52.394;9.756;2022-11-20T16:16:30;2.00;1.00
3208;DHT22;1616;52.394;9.756;2022-11-20T16:18:58;1.80;1.00
3208;DHT22;1616;52.394;9.756;2022-11-20T16:21:25;1.70;1.00
3208;DHT22;1616;52.394;9.756;2022-11-20T16:23:58;1.60;1.00
3208;DHT22;1616;52.394;9.756;2022-11-20T16:26:24;1.50;1.00
3208;DHT22;1616;52.394;9.756;2022-11-20T16:28:50;1.40;1.00
3208;DHT22;1616;52.394;9.756;2022-11-20T16:31:17;1.30;1.00
3208;DHT22;1616;52.394;9.756;2022-11-20T16:33:49;1.30;1.00
3208;DHT22;1616;52.394;9.756;2022-11-20T16:36:16;1.10;1.00
3208;DHT22;1616;52.394;9.756;2022-11-20T16:38:42;1.10;1.00
3208;DHT22;1616;52.394;9.756;2022-11-20T16:41:09;1.00;1.00
3208;DHT22;1616;52.394;9.756;2022-11-20T16:43:49;1.00;1.00
3208;DHT22;1616;52.394;9.756;2022-11-20T16:46:17;0.90;1.00
3208;DHT22;1616;52.394;9.756;2022-11-20T16:48:43;0.90;1.00
3208;DHT22;1616;52.394;9.756;2022-11-20T16:51:11;0.80;1.00
3208;DHT22;1616;52.394;9.756;2022-11-20T16:53:37;0.80;1.00
3208;DHT22;1616;52.394;9.756;2022-11-20T16:56:17;0.80;1.00
3208;DHT22;1616;52.394;9.756;2022-11-20T16:58:47;0.80;1.00
3208;DHT22;1616;52.394;9.756;2022-11-20T17:01:18;0.80;1.00
3208;DHT22;1616;52.394;9.756;2022-11-20T17:03:52;0.80;1.00
3208;DHT22;1616;52.394;9.756;2022-11-20T17:06:24;0.80;1.00
3208;DHT22;1616;52.394;9.756;2022-11-20T17:08:50;0.90;1.00
3208;DHT22;1616;52.394;9.756;2022-11-20T17:11:17;1.00;1.00
3208;DHT22;1616;52.394;9.756;2022-11-20T17:13:44;0.90;1.00
3208;DHT22;1616;52.394;9.756;2022-11-20T17:16:12;0.90;1.00
3208;DHT22;1616;52.394;9.756;2022-11-20T17:18:39;0.90;1.00
3208;DHT22;1616;52.394;9.756;2022-11-20T17:21:05;0.90;1.00
3208;DHT22;1616;52.394;9.756;2022-11-20T17:23:33;0.80;1.00
3208;DHT22;1616;52.394;9.756;2022-11-20T17:26:14;0.80;1.00
3208;DHT22;1616;52.394;9.756;2022-11-20T17:28:42;0.80;1.00
3208;DHT22;1616;52.394;9.756;2022-11-20T17:31:13;0.80;1.00
3208;DHT22;1616;52.394;9.756;2022-11-20T17:33:40;0.80;1.00
3208;DHT22;1616;52.394;9.756;2022-11-20T17:36:08;0.80;1.00
3208;DHT22;1616;52.394;9.756;2022-11-20T17:38:34;0.70;1.00
3208;DHT22;1616;52.394;9.756;2022-11-20T17:41:08;0.70;1.00
3208;DHT22;1616;52.394;9.756;2022-11-20T17:43:34;0.70;1.00
3208;DHT22;1616;52.394;9.756;2022-11-20T17:46:28;0.60;1.00
3208;DHT22;1616;52.394;9.756;2022-11-20T17:48:54;0.70;1.00
3208;DHT22;1616;52.394;9.756;2022-11-20T17:51:25;0.70;1.00
3208;DHT22;1616;52.394;9.756;2022-11-20T17:54:00;0.70;1.00
3208;DHT22;1616;52.394;9.756;2022-11-20T17:56:30;0.70;1.00
3208;DHT22;1616;52.394;9.756;2022-11-20T17:59:14;0.70;1.00
3208;DHT22;1616;52.394;9.756;2022-11-20T18:01:40;0.60;1.00
3208;DHT22;1616;52.394;9.756;2022-11-20T18:04:09;0.80;1.00